sensor_id;sensor_type;location;lat;lon;timestamp;pressure;altitude;pressure_sealevel;temperature;humidity
67434;BME280;54305;47.950;6.572;2023-06-26T00:00:42;94400.84;;;19.51;87.24
67434;BME280;54305;47.950;6.572;2023-06-26T00:03:08;94399.00;;;19.52;85.45
67434;BME280;54305;47.950;6.572;2023-06-26T00:05:33;94403.09;;;19.48;85.92
67434;BME280;54305;47.950;6.572;2023-06-26T00:07:59;94403.09;;;19.48;86.36
67434;BME280;54305;47.950;6.572;2023-06-26T00:10:26;94406.78;;;19.47;86.71
67434;BME280;54305;47.950;6.572;2023-06-26T00:12:51;94408.81;;;19.45;87.91
67434;BME280;54305;47.950;6.572;2023-06-26T00:15:16;94406.97;;;19.45;85.56
67434;BME280;54305;47.950;6.572;2023-06-26T00:17:41;94409.66;;;19.39;88.49
67434;BME280;54305;47.950;6.572;2023-06-26T00:20:07;94404.91;;;19.10;92.02
67434;BME280;54305;47.950;6.572;2023-06-26T00:22:33;94410.53;;;19.20;89.68
67434;BME280;54305;47.950;6.572;2023-06-26T00:24:58;94396.75;;;19.18;91.92
67434;BME280;54305;47.950;6.572;2023-06-26T00:27:23;94406.16;;;19.01;93.30
67434;BME280;54305;47.950;6.572;2023-06-26T00:29:48;94401.16;;;18.93;93.21
67434;BME280;54305;47.950;6.572;2023-06-26T00:32:14;94403.44;;;18.83;94.90
67434;BME280;54305;47.950;6.572;2023-06-26T00:34:39;94401.75;;;18.88;93.69
67434;BME280;54305;47.950;6.572;2023-06-26T00:37:05;94394.00;;;19.00;92.01
67434;BME280;54305;47.950;6.572;2023-06-26T00:39:30;94395.19;;;19.04;93.86
67434;BME280;54305;47.950;6.572;2023-06-26T00:41:55;94396.97;;;19.23;88.54
67434;BME280;54305;47.950;6.572;2023-06-26T00:44:20;94393.28;;;19.24;88.81
67434;BME280;54305;47.950;6.572;2023-06-26T00:46:46;94388.19;;;19.29;88.94
67434;BME280;54305;47.950;6.572;2023-06-26T00:49:11;94385.38;;;19.24;89.35
67434;BME280;54305;47.950;6.572;2023-06-26T00:51:37;94390.66;;;19.24;88.77
67434;BME280;54305;47.950;6.572;2023-06-26T00:54:02;94388.56;;;19.32;89.12
67434;BME280;54305;47.950;6.572;2023-06-26T00:56:28;94387.78;;;19.32;89.78
67434;BME280;54305;47.950;6.572;2023-06-26T00:58:54;94381.28;;;19.21;90.02
67434;BME280;54305;47.950;6.572;2023-06-26T01:01:19;94388.28;;;19.09;91.99
67434;BME280;54305;47.950;6.572;2023-06-26T01:03:48;94389.75;;;18.99;93.80
67434;BME280;54305;47.950;6.572;2023-06-26T01:06:17;94388.75;;;18.93;95.84
67434;BME280;54305;47.950;6.572;2023-06-26T01:08:43;94381.47;;;18.89;94.96
67434;BME280;54305;47.950;6.572;2023-06-26T01:11:09;94379.41;;;18.91;94.23
67434;BME280;54305;47.950;6.572;2023-06-26T01:13:34;94384.97;;;18.83;94.86
67434;BME280;54305;47.950;6.572;2023-06-26T01:16:00;94373.00;;;18.74;97.08
67434;BME280;54305;47.950;6.572;2023-06-26T01:18:26;94376.41;;;18.81;96.32
67434;BME280;54305;47.950;6.572;2023-06-26T01:20:52;94372.34;;;18.85;95.22
67434;BME280;54305;47.950;6.572;2023-06-26T01:28:09;94375.94;;;18.53;99.08
67434;BME280;54305;47.950;6.572;2023-06-26T01:30:37;94373.53;;;18.45;99.85
67434;BME280;54305;47.950;6.572;2023-06-26T01:33:03;94370.09;;;18.38;100.00
67434;BME280;54305;47.950;6.572;2023-06-26T01:35:28;94367.88;;;18.35;100.00
67434;BME280;54305;47.950;6.572;2023-06-26T01:38:10;94375.19;;;18.20;100.00
67434;BME280;54305;47.950;6.572;2023-06-26T01:40:35;94368.69;;;18.22;100.00
67434;BME280;54305;47.950;6.572;2023-06-26T01:43:01;94373.53;;;18.32;100.00
67434;BME280;54305;47.950;6.572;2023-06-26T01:45:27;94378.00;;;18.38;100.00
67434;BME280;54305;47.950;6.572;2023-06-26T01:47:54;94375.97;;;18.27;100.00
67434;BME280;54305;47.950;6.572;2023-06-26T01:50:22;94380.03;;;18.29;100.00
67434;BME280;54305;47.950;6.572;2023-06-26T01:53:06;94378.00;;;18.38;100.00
67434;BME280;54305;47.950;6.572;2023-06-26T01:55:38;94371.09;;;18.37;100.00
67434;BME280;54305;47.950;6.572;2023-06-26T01:58:05;94374.56;;;18.24;100.00
67434;BME280;54305;47.950;6.572;2023-06-26T02:00:31;94379.66;;;18.13;100.00
67434;BME280;54305;47.950;6.572;2023-06-26T02:02:57;94371.34;;;18.03;100.00
67434;BME280;54305;47.950;6.572;2023-06-26T02:05:22;94375.59;;;18.04;100.00
67434;BME280;54305;47.950;6.572;2023-06-26T02:07:48;94376.84;;;17.95;100.00
67434;BME280;54305;47.950;6.572;2023-06-26T02:10:14;94383.75;;;17.89;100.00
67434;BME280;54305;47.950;6.572;2023-06-26T02:12:40;94376.84;;;17.95;100.00
67434;BME280;54305;47.950;6.572;2023-06-26T02:15:05;94381.91;;;17.90;100.00
67434;BME280;54305;47.950;6.572;2023-06-26T02:17:30;94384.97;;;17.87;100.00
67434;BME280;54305;47.950;6.572;2023-06-26T02:19:56;94380.91;;;17.78;100.00
67434;BME280;54305;47.950;6.572;2023-06-26T02:22:21;94378.28;;;17.78;100.00
67434;BME280;54305;47.950;6.572;2023-06-26T02:24:46;94378.66;;;17.75;100.00
67434;BME280;54305;47.950;6.572;2023-06-26T02:27:11;94382.13;;;17.95;100.00
67434;BME280;54305;47.950;6.572;2023-06-26T02:29:37;94378.88;;;17.93;100.00
67434;BME280;54305;47.950;6.572;2023-06-26T02:32:03;94387.78;;;17.92;100.00
67434;BME280;54305;47.950;6.572;2023-06-26T02:34:28;94386.56;;;17.81;100.00
67434;BME280;54305;47.950;6.572;2023-06-26T02:36:53;94388.59;;;17.73;100.00
67434;BME280;54305;47.950;6.572;2023-06-26T02:39:23;94390.22;;;17.74;100.00
67434;BME280;54305;47.950;6.572;2023-06-26T02:41:48;94387.78;;;17.79;100.00
67434;BME280;54305;47.950;6.572;2023-06-26T02:44:14;94390.22;;;17.80;100.00
67434;BME280;54305;47.950;6.572;2023-06-26T02:46:39;94381.69;;;17.85;100.00
67434;BME280;54305;47.950;6.572;2023-06-26T02:49:05;94390.22;;;17.87;100.00
67434;BME280;54305;47.950;6.572;2023-06-26T02:51:31;94390.44;;;17.79;100.00
67434;BME280;54305;47.950;6.572;2023-06-26T02:53:57;94388.00;;;17.71;100.00
67434;BME280;54305;47.950;6.572;2023-06-26T02:56:22;94391.44;;;17.84;100.00
67434;BME280;54305;47.950;6.572;2023-06-26T02:58:47;94391.03;;;17.68;100.00
67434;BME280;54305;47.950;6.572;2023-06-26T03:01:12;94383.72;;;17.63;100.00
67434;BME280;54305;47.950;6.572;2023-06-26T03:03:38;94393.28;;;17.71;100.00
67434;BME280;54305;47.950;6.572;2023-06-26T03:06:08;94382.53;;;17.79;100.00
67434;BME280;54305;47.950;6.572;2023-06-26T03:08:37;94388.59;;;17.73;100.00
67434;BME280;54305;47.950;6.572;2023-06-26T03:11:04;94390.03;;;17.69;100.00
67434;BME280;54305;47.950;6.572;2023-06-26T03:13:29;94394.06;;;17.65;100.00
67434;BME280;54305;47.950;6.572;2023-06-26T03:15:54;94393.06;;;17.53;100.00
67434;BME280;54305;47.950;6.572;2023-06-26T03:18:19;94397.31;;;17.54;100.00
67434;BME280;54305;47.950;6.572;2023-06-26T03:20:45;94396.09;;;17.63;100.00
67434;BME280;54305;47.950;6.572;2023-06-26T03:23:10;94394.28;;;17.57;100.00
67434;BME280;54305;47.950;6.572;2023-06-26T03:25:36;94397.53;;;17.59;100.00
67434;BME280;54305;47.950;6.572;2023-06-26T03:28:01;94389.41;;;17.60;100.00
67434;BME280;54305;47.950;6.572;2023-06-26T03:30:26;94392.25;;;17.59;100.00
67434;BME280;54305;47.950;6.572;2023-06-26T03:32:51;94391.44;;;17.58;100.00
67434;BME280;54305;47.950;6.572;2023-06-26T03:35:16;94393.88;;;17.60;100.00
67434;BME280;54305;47.950;6.572;2023-06-26T03:37:42;94391.66;;;17.57;100.00
67434;BME280;54305;47.950;6.572;2023-06-26T03:40:07;94392.06;;;17.60;100.00
67434;BME280;54305;47.950;6.572;2023-06-26T03:42:33;94397.53;;;17.59;100.00
67434;BME280;54305;47.950;6.572;2023-06-26T03:44:58;94391.03;;;17.55;100.00
67434;BME280;54305;47.950;6.572;2023-06-26T03:47:23;94385.53;;;17.43;100.00
67434;BME280;54305;47.950;6.572;2023-06-26T03:49:49;94393.03;;;17.40;100.00
67434;BME280;54305;47.950;6.572;2023-06-26T03:52:14;94393.03;;;17.40;100.00
67434;BME280;54305;47.950;6.572;2023-06-26T03:54:39;94389.78;;;17.38;100.00
67434;BME280;54305;47.950;6.572;2023-06-26T03:57:04;94389.63;;;17.39;100.00
67434;BME280;54305;47.950;6.572;2023-06-26T03:59:30;94395.03;;;17.38;100.00
67434;BME280;54305;47.950;6.572;2023-06-26T04:01:55;94406.84;;;17.42;100.00
67434;BME280;54305;47.950;6.572;2023-06-26T04:04:21;94404.81;;;17.44;100.00
67434;BME280;54305;47.950;6.572;2023-06-26T04:06:46;94414.53;;;17.50;100.00
67434;BME280;54305;47.950;6.572;2023-06-26T04:09:12;94422.66;;;17.68;100.00
67434;BME280;54305;47.950;6.572;2023-06-26T04:11:37;94419.81;;;17.76;100.00
67434;BME280;54305;47.950;6.572;2023-06-26T04:14:02;94430.16;;;18.10;100.00
67434;BME280;54305;47.950;6.572;2023-06-26T04:16:28;94410.28;;;18.33;100.00
67434;BME280;54305;47.950;6.572;2023-06-26T04:18:54;94428.72;;;18.40;100.00
67434;BME280;54305;47.950;6.572;2023-06-26T04:21:21;94424.03;;;18.42;100.00
67434;BME280;54305;47.950;6.572;2023-06-26T04:23:46;94429.31;;;18.35;100.00
67434;BME280;54305;47.950;6.572;2023-06-26T04:26:12;94442.94;;;18.39;100.00
67434;BME280;54305;47.950;6.572;2023-06-26T04:28:39;94439.69;;;18.24;100.00
67434;BME280;54305;47.950;6.572;2023-06-26T04:31:04;94444.13;;;18.30;100.00
67434;BME280;54305;47.950;6.572;2023-06-26T04:33:30;94448.78;;;18.41;100.00
67434;BME280;54305;47.950;6.572;2023-06-26T04:35:55;94457.06;;;18.64;100.00
67434;BME280;54305;47.950;6.572;2023-06-26T04:38:20;94441.19;;;18.77;100.00
67434;BME280;54305;47.950;6.572;2023-06-26T04:40:47;94443.97;;;18.95;100.00
67434;BME280;54305;47.950;6.572;2023-06-26T04:43:12;94438.28;;;18.98;99.02
67434;BME280;54305;47.950;6.572;2023-06-26T04:45:37;94433.00;;;18.98;100.00
67434;BME280;54305;47.950;6.572;2023-06-26T04:48:02;94439.91;;;18.99;100.00
67434;BME280;54305;47.950;6.572;2023-06-26T04:50:28;94429.94;;;19.01;100.00
67434;BME280;54305;47.950;6.572;2023-06-26T04:52:55;94432.97;;;19.04;100.00
67434;BME280;54305;47.950;6.572;2023-06-26T04:55:20;94431.75;;;19.07;100.00
67434;BME280;54305;47.950;6.572;2023-06-26T04:57:46;94436.19;;;19.13;100.00
67434;BME280;54305;47.950;6.572;2023-06-26T05:00:12;94441.44;;;19.26;100.00
67434;BME280;54305;47.950;6.572;2023-06-26T05:02:37;94438.50;;;19.40;100.00
67434;BME280;54305;47.950;6.572;2023-06-26T05:05:03;94438.06;;;19.50;100.00
67434;BME280;54305;47.950;6.572;2023-06-26T05:07:28;94430.19;;;19.68;100.00
67434;BME280;54305;47.950;6.572;2023-06-26T05:09:54;94436.13;;;19.88;99.93
67434;BME280;54305;47.950;6.572;2023-06-26T05:12:20;94434.69;;;19.92;100.00
67434;BME280;54305;47.950;6.572;2023-06-26T05:14:45;94432.50;;;19.89;99.56
67434;BME280;54305;47.950;6.572;2023-06-26T05:17:11;94435.31;;;19.94;100.00
67434;BME280;54305;47.950;6.572;2023-06-26T05:19:36;94431.22;;;19.98;100.00
67434;BME280;54305;47.950;6.572;2023-06-26T05:22:02;94433.19;;;20.09;100.00
67434;BME280;54305;47.950;6.572;2023-06-26T05:24:32;94448.75;;;20.17;100.00
67434;BME280;54305;47.950;6.572;2023-06-26T05:26:57;94446.72;;;20.19;100.00
67434;BME280;54305;47.950;6.572;2023-06-26T05:29:23;94443.66;;;20.40;99.11
67434;BME280;54305;47.950;6.572;2023-06-26T05:31:48;94453.16;;;20.48;100.00
67434;BME280;54305;47.950;6.572;2023-06-26T05:34:14;94454.88;;;20.42;100.00
67434;BME280;54305;47.950;6.572;2023-06-26T05:36:41;94464.69;;;20.35;100.00
67434;BME280;54305;47.950;6.572;2023-06-26T05:39:06;94472.81;;;20.33;100.00
67434;BME280;54305;47.950;6.572;2023-06-26T05:41:31;94479.03;;;20.21;100.00
67434;BME280;54305;47.950;6.572;2023-06-26T05:43:57;94482.03;;;20.00;100.00
67434;BME280;54305;47.950;6.572;2023-06-26T05:46:22;94488.25;;;19.81;100.00
67434;BME280;54305;47.950;6.572;2023-06-26T05:48:47;94491.47;;;19.83;100.00
67434;BME280;54305;47.950;6.572;2023-06-26T05:51:13;94492.50;;;19.82;100.00
67434;BME280;54305;47.950;6.572;2023-06-26T05:53:38;94497.22;;;19.80;100.00
67434;BME280;54305;47.950;6.572;2023-06-26T05:56:04;94490.38;;;19.97;100.00
67434;BME280;54305;47.950;6.572;2023-06-26T05:58:29;94487.41;;;19.87;100.00
67434;BME280;54305;47.950;6.572;2023-06-26T06:00:55;94500.44;;;19.82;100.00
67434;BME280;54305;47.950;6.572;2023-06-26T06:03:20;94490.25;;;19.85;100.00
67434;BME280;54305;47.950;6.572;2023-06-26T06:05:45;94490.91;;;19.81;100.00
67434;BME280;54305;47.950;6.572;2023-06-26T06:08:11;94496.09;;;19.63;100.00
67434;BME280;54305;47.950;6.572;2023-06-26T06:10:36;94497.72;;;19.64;100.00
67434;BME280;54305;47.950;6.572;2023-06-26T06:13:01;94492.84;;;19.61;100.00
67434;BME280;54305;47.950;6.572;2023-06-26T06:15:26;94505.31;;;19.85;100.00
67434;BME280;54305;47.950;6.572;2023-06-26T06:17:52;94493.25;;;19.95;100.00
67434;BME280;54305;47.950;6.572;2023-06-26T06:20:17;94500.91;;;20.10;100.00
67434;BME280;54305;47.950;6.572;2023-06-26T06:22:44;94502.75;;;20.03;100.00
67434;BME280;54305;47.950;6.572;2023-06-26T06:25:09;94513.53;;;20.08;100.00
67434;BME280;54305;47.950;6.572;2023-06-26T06:27:35;94501.38;;;20.25;100.00
67434;BME280;54305;47.950;6.572;2023-06-26T06:30:00;94516.97;;;20.02;100.00
67434;BME280;54305;47.950;6.572;2023-06-26T06:32:25;94513.72;;;20.13;100.00
67434;BME280;54305;47.950;6.572;2023-06-26T06:34:50;94514.88;;;20.17;100.00
67434;BME280;54305;47.950;6.572;2023-06-26T06:37:16;94511.06;;;20.13;100.00
67434;BME280;54305;47.950;6.572;2023-06-26T06:39:41;94525.19;;;20.25;100.00
67434;BME280;54305;47.950;6.572;2023-06-26T06:42:06;94532.44;;;20.05;100.00
67434;BME280;54305;47.950;6.572;2023-06-26T06:44:32;94532.44;;;20.05;100.00
67434;BME280;54305;47.950;6.572;2023-06-26T06:46:57;94530.81;;;20.04;100.00
67434;BME280;54305;47.950;6.572;2023-06-26T06:49:22;94541.75;;;20.14;100.00
67434;BME280;54305;47.950;6.572;2023-06-26T06:51:47;94535.69;;;20.38;100.00
67434;BME280;54305;47.950;6.572;2023-06-26T06:54:14;94535.06;;;20.36;100.00
67434;BME280;54305;47.950;6.572;2023-06-26T06:56:40;94541.34;;;20.66;100.00
67434;BME280;54305;47.950;6.572;2023-06-26T06:59:05;94540.72;;;20.95;100.00
67434;BME280;54305;47.950;6.572;2023-06-26T07:01:31;94544.53;;;21.17;100.00
67434;BME280;54305;47.950;6.572;2023-06-26T07:03:56;94545.56;;;21.34;98.81
67434;BME280;54305;47.950;6.572;2023-06-26T07:06:22;94544.25;;;21.43;100.00
67434;BME280;54305;47.950;6.572;2023-06-26T07:08:47;94539.00;;;21.73;98.24
67434;BME280;54305;47.950;6.572;2023-06-26T07:11:13;94545.94;;;21.56;100.00
67434;BME280;54305;47.950;6.572;2023-06-26T07:13:38;94549.97;;;21.76;100.00
67434;BME280;54305;47.950;6.572;2023-06-26T07:16:03;94555.78;;;21.67;96.77
67434;BME280;54305;47.950;6.572;2023-06-26T07:18:29;94564.72;;;21.72;95.36
67434;BME280;54305;47.950;6.572;2023-06-26T07:20:54;94567.63;;;21.64;96.63
67434;BME280;54305;47.950;6.572;2023-06-26T07:23:19;94574.47;;;21.00;96.62
67434;BME280;54305;47.950;6.572;2023-06-26T07:25:44;94577.06;;;21.24;99.26
67434;BME280;54305;47.950;6.572;2023-06-26T07:28:10;94570.47;;;21.69;97.82
67434;BME280;54305;47.950;6.572;2023-06-26T07:30:36;94572.88;;;21.35;97.84
67434;BME280;54305;47.950;6.572;2023-06-26T07:33:03;94575.72;;;21.33;94.76
67434;BME280;54305;47.950;6.572;2023-06-26T07:35:29;94578.84;;;21.48;92.76
67434;BME280;54305;47.950;6.572;2023-06-26T07:37:54;94588.41;;;21.49;93.40
67434;BME280;54305;47.950;6.572;2023-06-26T07:40:19;94588.84;;;21.10;99.86
67434;BME280;54305;47.950;6.572;2023-06-26T07:42:44;94592.53;;;21.63;98.07
67434;BME280;54305;47.950;6.572;2023-06-26T07:45:11;94593.72;;;21.67;89.76
67434;BME280;54305;47.950;6.572;2023-06-26T07:47:37;94595.28;;;20.65;99.40
67434;BME280;54305;47.950;6.572;2023-06-26T07:50:03;94597.47;;;20.75;97.85
67434;BME280;54305;47.950;6.572;2023-06-26T07:52:28;94603.34;;;20.52;98.54
67434;BME280;54305;47.950;6.572;2023-06-26T07:54:55;94596.06;;;20.17;96.59
67434;BME280;54305;47.950;6.572;2023-06-26T07:57:20;94605.50;;;20.37;96.53
67434;BME280;54305;47.950;6.572;2023-06-26T07:59:45;94597.16;;;20.65;95.69
67434;BME280;54305;47.950;6.572;2023-06-26T08:02:10;94594.41;;;20.78;93.09
67434;BME280;54305;47.950;6.572;2023-06-26T08:04:36;94597.97;;;21.14;89.63
67434;BME280;54305;47.950;6.572;2023-06-26T08:07:01;94602.13;;;20.55;89.11
67434;BME280;54305;47.950;6.572;2023-06-26T08:09:27;94601.66;;;20.33;91.62
67434;BME280;54305;47.950;6.572;2023-06-26T08:11:53;94599.88;;;20.27;87.54
67434;BME280;54305;47.950;6.572;2023-06-26T08:14:19;94605.50;;;20.37;92.83
67434;BME280;54305;47.950;6.572;2023-06-26T08:16:44;94603.84;;;20.36;92.98
67434;BME280;54305;47.950;6.572;2023-06-26T08:19:10;94595.81;;;20.80;91.09
67434;BME280;54305;47.950;6.572;2023-06-26T08:21:36;94602.00;;;20.67;88.20
67434;BME280;54305;47.950;6.572;2023-06-26T08:24:01;94598.72;;;20.72;92.88
67434;BME280;54305;47.950;6.572;2023-06-26T08:26:26;94610.03;;;21.10;89.50
67434;BME280;54305;47.950;6.572;2023-06-26T08:28:52;94610.59;;;21.12;89.50
67434;BME280;54305;47.950;6.572;2023-06-26T08:31:17;94605.31;;;21.12;91.58
67434;BME280;54305;47.950;6.572;2023-06-26T08:33:42;94608.22;;;21.04;88.52
67434;BME280;54305;47.950;6.572;2023-06-26T08:36:08;94615.59;;;21.02;88.69
67434;BME280;54305;47.950;6.572;2023-06-26T08:38:33;94613.25;;;20.63;88.07
67434;BME280;54305;47.950;6.572;2023-06-26T08:40:58;94622.69;;;21.62;88.59
67434;BME280;54305;47.950;6.572;2023-06-26T08:43:24;94616.78;;;22.14;86.99
67434;BME280;54305;47.950;6.572;2023-06-26T08:45:49;94613.53;;;22.71;78.71
67434;BME280;54305;47.950;6.572;2023-06-26T08:48:18;94624.16;;;22.71;71.51
67434;BME280;54305;47.950;6.572;2023-06-26T08:50:45;94621.06;;;22.15;82.26
67434;BME280;54305;47.950;6.572;2023-06-26T08:55:57;94622.22;;;22.90;74.68
67434;BME280;54305;47.950;6.572;2023-06-26T08:58:23;94629.28;;;21.96;75.90
67434;BME280;54305;47.950;6.572;2023-06-26T09:00:48;94619.50;;;22.26;79.27
67434;BME280;54305;47.950;6.572;2023-06-26T09:03:14;94614.06;;;23.14;77.02
67434;BME280;54305;47.950;6.572;2023-06-26T09:05:40;94626.03;;;23.74;72.90
67434;BME280;54305;47.950;6.572;2023-06-26T09:08:06;94630.91;;;23.77;73.24
67434;BME280;54305;47.950;6.572;2023-06-26T09:10:31;94630.72;;;24.46;67.76
67434;BME280;54305;47.950;6.572;2023-06-26T09:12:57;94631.41;;;24.81;65.60
67434;BME280;54305;47.950;6.572;2023-06-26T09:15:23;94636.53;;;24.88;63.45
67434;BME280;54305;47.950;6.572;2023-06-26T09:17:48;94641.56;;;25.01;66.60
67434;BME280;54305;47.950;6.572;2023-06-26T09:20:14;94635.88;;;24.64;62.37
67434;BME280;54305;47.950;6.572;2023-06-26T09:22:41;94644.00;;;24.18;62.47
67434;BME280;54305;47.950;6.572;2023-06-26T09:25:07;94646.78;;;23.61;67.23
67434;BME280;54305;47.950;6.572;2023-06-26T09:27:32;94648.66;;;23.37;69.13
67434;BME280;54305;47.950;6.572;2023-06-26T09:29:58;94650.78;;;22.94;72.12
67434;BME280;54305;47.950;6.572;2023-06-26T09:32:26;94657.69;;;22.95;72.83
67434;BME280;54305;47.950;6.572;2023-06-26T09:34:53;94649.28;;;22.57;70.05
67434;BME280;54305;47.950;6.572;2023-06-26T09:37:19;94659.50;;;22.24;71.13
67434;BME280;54305;47.950;6.572;2023-06-26T09:39:44;94663.75;;;22.43;71.76
67434;BME280;54305;47.950;6.572;2023-06-26T09:42:10;94650.19;;;22.51;70.54
67434;BME280;54305;47.950;6.572;2023-06-26T09:44:35;94654.72;;;23.03;65.97
67434;BME280;54305;47.950;6.572;2023-06-26T09:47:03;94653.84;;;22.80;68.02
67434;BME280;54305;47.950;6.572;2023-06-26T09:49:29;94654.34;;;22.88;63.96
67434;BME280;54305;47.950;6.572;2023-06-26T09:51:54;94651.84;;;22.64;70.08
67434;BME280;54305;47.950;6.572;2023-06-26T09:54:21;94655.25;;;22.23;68.84
67434;BME280;54305;47.950;6.572;2023-06-26T09:56:46;94661.25;;;22.48;69.63
67434;BME280;54305;47.950;6.572;2023-06-26T09:59:11;94666.28;;;22.38;65.73
67434;BME280;54305;47.950;6.572;2023-06-26T10:01:39;94666.34;;;22.32;67.47
67434;BME280;54305;47.950;6.572;2023-06-26T10:04:05;94662.63;;;23.44;69.23
67434;BME280;54305;47.950;6.572;2023-06-26T10:06:34;94659.94;;;24.30;63.82
67434;BME280;54305;47.950;6.572;2023-06-26T10:09:00;94656.97;;;24.82;60.79
67434;BME280;54305;47.950;6.572;2023-06-26T10:11:29;94654.06;;;25.66;56.33
67434;BME280;54305;47.950;6.572;2023-06-26T10:13:57;94662.94;;;23.82;57.99
67434;BME280;54305;47.950;6.572;2023-06-26T10:16:26;94665.66;;;23.36;57.50
67434;BME280;54305;47.950;6.572;2023-06-26T10:18:53;94665.59;;;23.13;59.75
67434;BME280;54305;47.950;6.572;2023-06-26T10:21:18;94659.28;;;23.26;62.81
67434;BME280;54305;47.950;6.572;2023-06-26T10:23:45;94664.41;;;24.13;59.07
67434;BME280;54305;47.950;6.572;2023-06-26T10:26:10;94660.78;;;23.56;60.50
67434;BME280;54305;47.950;6.572;2023-06-26T10:28:36;94671.97;;;24.32;61.00
67434;BME280;54305;47.950;6.572;2023-06-26T10:31:03;94669.16;;;24.11;57.52
67434;BME280;54305;47.950;6.572;2023-06-26T10:33:29;94667.41;;;25.00;58.31
67434;BME280;54305;47.950;6.572;2023-06-26T10:35:54;94666.56;;;24.55;53.13
67434;BME280;54305;47.950;6.572;2023-06-26T10:38:49;94668.63;;;25.09;54.65
67434;BME280;54305;47.950;6.572;2023-06-26T10:41:19;94665.03;;;24.31;56.11
67434;BME280;54305;47.950;6.572;2023-06-26T10:43:44;94669.88;;;23.60;55.51
67434;BME280;54305;47.950;6.572;2023-06-26T10:46:11;94663.44;;;23.68;56.17
67434;BME280;54305;47.950;6.572;2023-06-26T10:48:58;94666.75;;;24.37;56.74
67434;BME280;54305;47.950;6.572;2023-06-26T10:51:25;94660.56;;;25.21;59.93
67434;BME280;54305;47.950;6.572;2023-06-26T10:53:53;94673.31;;;24.46;57.40
67434;BME280;54305;47.950;6.572;2023-06-26T10:56:19;94687.19;;;23.17;57.32
67434;BME280;54305;47.950;6.572;2023-06-26T10:58:44;94674.47;;;24.11;58.93
67434;BME280;54305;47.950;6.572;2023-06-26T11:03:49;94671.84;;;23.30;59.00
67434;BME280;54305;47.950;6.572;2023-06-26T11:06:26;94674.13;;;23.15;56.82
67434;BME280;54305;47.950;6.572;2023-06-26T11:08:53;94671.88;;;23.76;56.48
67434;BME280;54305;47.950;6.572;2023-06-26T11:11:18;94667.72;;;24.31;57.45
67434;BME280;54305;47.950;6.572;2023-06-26T11:13:44;94669.13;;;24.50;58.46
67434;BME280;54305;47.950;6.572;2023-06-26T11:16:11;94671.06;;;24.38;57.93
67434;BME280;54305;47.950;6.572;2023-06-26T11:18:36;94668.88;;;24.63;55.77
67434;BME280;54305;47.950;6.572;2023-06-26T11:21:08;94655.56;;;24.24;56.38
67434;BME280;54305;47.950;6.572;2023-06-26T11:23:36;94655.19;;;23.81;54.09
67434;BME280;54305;47.950;6.572;2023-06-26T11:26:15;94671.63;;;24.40;55.06
67434;BME280;54305;47.950;6.572;2023-06-26T11:28:47;94673.41;;;24.23;55.90
67434;BME280;54305;47.950;6.572;2023-06-26T11:33:55;94656.50;;;24.29;55.68
67434;BME280;54305;47.950;6.572;2023-06-26T11:36:25;94659.94;;;23.79;57.80
67434;BME280;54305;47.950;6.572;2023-06-26T11:38:54;94665.78;;;24.55;58.79
67434;BME280;54305;47.950;6.572;2023-06-26T11:41:20;94656.88;;;24.49;54.07
67434;BME280;54305;47.950;6.572;2023-06-26T11:43:45;94669.97;;;24.11;55.31
67434;BME280;54305;47.950;6.572;2023-06-26T11:46:10;94664.19;;;24.14;58.86
67434;BME280;54305;47.950;6.572;2023-06-26T11:48:35;94652.78;;;24.86;54.43
67434;BME280;54305;47.950;6.572;2023-06-26T11:51:04;94653.84;;;24.57;53.28
67434;BME280;54305;47.950;6.572;2023-06-26T11:53:29;94650.50;;;24.78;52.09
67434;BME280;54305;47.950;6.572;2023-06-26T11:55:55;94655.38;;;25.64;57.19
67434;BME280;54305;47.950;6.572;2023-06-26T11:58:20;94661.91;;;25.23;52.91
67434;BME280;54305;47.950;6.572;2023-06-26T12:00:47;94663.72;;;25.89;51.55
67434;BME280;54305;47.950;6.572;2023-06-26T12:03:12;94641.97;;;26.61;49.31
67434;BME280;54305;47.950;6.572;2023-06-26T12:05:37;94651.41;;;26.47;50.78
67434;BME280;54305;47.950;6.572;2023-06-26T12:08:03;94653.41;;;25.92;50.74
67434;BME280;54305;47.950;6.572;2023-06-26T12:10:31;94648.94;;;26.19;53.21
67434;BME280;54305;47.950;6.572;2023-06-26T12:12:57;94645.97;;;25.94;50.80
67434;BME280;54305;47.950;6.572;2023-06-26T12:15:24;94656.63;;;25.94;51.67
67434;BME280;54305;47.950;6.572;2023-06-26T12:17:49;94649.66;;;25.55;54.25
67434;BME280;54305;47.950;6.572;2023-06-26T12:20:18;94656.16;;;24.82;51.71
67434;BME280;54305;47.950;6.572;2023-06-26T12:22:45;94649.22;;;24.53;50.53
67434;BME280;54305;47.950;6.572;2023-06-26T12:25:10;94639.88;;;24.39;53.73
67434;BME280;54305;47.950;6.572;2023-06-26T12:27:35;94641.78;;;25.65;49.17
67434;BME280;54305;47.950;6.572;2023-06-26T12:30:02;94633.38;;;25.73;54.30
67434;BME280;54305;47.950;6.572;2023-06-26T12:32:28;94643.06;;;25.79;52.98
67434;BME280;54305;47.950;6.572;2023-06-26T12:34:53;94645.63;;;25.91;49.73
67434;BME280;54305;47.950;6.572;2023-06-26T12:37:21;94634.06;;;26.71;48.04
67434;BME280;54305;47.950;6.572;2023-06-26T12:39:53;94617.78;;;26.73;46.62
67434;BME280;54305;47.950;6.572;2023-06-26T12:42:19;94636.09;;;25.95;51.34
67434;BME280;54305;47.950;6.572;2023-06-26T12:44:45;94630.19;;;26.14;51.80
67434;BME280;54305;47.950;6.572;2023-06-26T12:47:10;94633.56;;;27.32;51.27
67434;BME280;54305;47.950;6.572;2023-06-26T12:49:38;94632.06;;;26.88;48.25
67434;BME280;54305;47.950;6.572;2023-06-26T12:52:10;94631.78;;;26.15;48.89
67434;BME280;54305;47.950;6.572;2023-06-26T12:54:38;94633.78;;;26.03;52.44
67434;BME280;54305;47.950;6.572;2023-06-26T12:57:04;94636.97;;;25.29;51.43
67434;BME280;54305;47.950;6.572;2023-06-26T12:59:30;94628.16;;;25.83;50.94
67434;BME280;54305;47.950;6.572;2023-06-26T13:01:56;94631.31;;;25.09;49.07